CheckWX is a tool to help pilots better visualize weather data.  It is not intended as a substitute for an official pre-flight weather briefing.

03:46:35 UTC

KIMT METAR
Ford Airport
Iron Mountain Kingsford, Michigan, USA
Current

53 mins ago

KIMT 270254Z AUTO 07004KT 10SM CLR 12/07 A3012 RMK AO2 SLP201 T01220067 53028
Observed
May-27 @ 02:54 UTC
Wind
  • 070° at 4 KTS
Visibility
10 SM
Flight Rules
VFR
Cloud Levels
  • Clear skies
Temperature
12°C / 54°F
Dewpoint
C / 45°F
Humidity
72%
Altimeter
30.12" Hg
Pressure
1020.02 hPa
Previous

2 hours ago

KIMT 270154Z AUTO 09006KT 10SM SCT065 BKN090 15/07 A3008 RMK AO2 SLP189 T01500072
Observed
May-27 @ 01:54 UTC
Wind
  • 090° at 6 KTS
Visibility
10 SM
Flight Rules
VFR
Cloud Levels
  • Scattered at 6,500' AGL
  • Broken at 9,000' AGL
Temperature
15°C / 59°F
Dewpoint
C / 45°F
Humidity
59%
Altimeter
30.08" Hg
Pressure
1018.62 hPa
Previous

3 hours ago

KIMT 270054Z AUTO 05007G17KT 10SM FEW055 SCT080 18/08 A3005 RMK AO2 SLP178 T01780078
Observed
May-27 @ 00:54 UTC
Wind
  • 050° at 7 KTS
  • Gusting to 17 KTS
Visibility
10 SM
Flight Rules
VFR
Cloud Levels
  • Few at 5,500' AGL
  • Scattered at 8,000' AGL
Temperature
18°C / 64°F
Dewpoint
C / 46°F
Humidity
52%
Altimeter
30.05" Hg
Pressure
1017.62 hPa